Time;durP1;ratioP1;P1;durP2;ratioP2;P2;SDS_P1;SDS_P2;PMS_P1;PMS_P2;Temp;Humidity;BMP_temperature;BMP_pressure;BME280_temperature;BME280_humidity;BME280_pressure;Samples;Min_cycle;Max_cycle;Signal;HPM_P1;HPM_P2
2023/03/06 00:01:25;;;;;;;1.02;0.65;;;9.70;80.80;;;;;;4942078;29;20031;-84
2023/03/06 00:03:51;;;;;;;1.42;0.85;;;9.60;80.80;;;;;;4963300;29;20470;-84
2023/03/06 00:06:17;;;;;;;1.90;0.90;;;9.70;80.80;;;;;;4947039;29;20063;-84
2023/03/06 00:08:42;;;;;;;1.65;0.90;;;9.70;80.80;;;;;;4947572;29;20020;-84
2023/03/06 00:11:08;;;;;;;1.83;0.80;;;9.70;80.80;;;;;;4946680;29;20023;-84
2023/03/06 00:13:33;;;;;;;1.65;0.80;;;9.70;80.70;;;;;;4946026;29;20015;-83
2023/03/06 00:16:00;;;;;;;1.65;0.90;;;9.70;80.80;;;;;;4945326;29;20491;-83
2023/03/06 00:18:25;;;;;;;1.80;0.90;;;9.70;80.80;;;;;;4944447;29;20410;-84
2023/03/06 00:20:51;;;;;;;1.33;0.70;;;9.70;80.80;;;;;;4944204;29;20030;-84
2023/03/06 00:23:17;;;;;;;1.25;0.93;;;9.70;80.80;;;;;;4961861;29;20043;-83
2023/03/06 00:25:44;;;;;;;1.40;0.80;;;9.70;80.80;;;;;;4943341;28;20063;-83
2023/03/06 00:28:11;;;;;;;1.25;0.80;;;9.70;80.90;;;;;;4943986;29;20027;-83
2023/03/06 00:30:36;;;;;;;1.35;0.88;;;9.70;80.90;;;;;;4943689;29;20023;-83
2023/03/06 00:33:02;;;;;;;1.75;1.00;;;9.70;80.80;;;;;;4961246;29;20027;-84
2023/03/06 00:35:27;;;;;;;2.05;0.93;;;9.70;80.90;;;;;;4942783;29;20039;-84
2023/03/06 00:37:53;;;;;;;1.52;0.90;;;9.70;80.90;;;;;;4939914;29;20409;-84
2023/03/06 00:40:20;;;;;;;2.25;1.17;;;9.70;80.90;;;;;;4939830;29;20079;-83
2023/03/06 00:42:46;;;;;;;1.40;0.80;;;9.70;80.90;;;;;;4939786;29;20486;-83
2023/03/06 00:45:12;;;;;;;2.08;1.00;;;9.70;80.80;;;;;;4955170;28;20039;-84
2023/03/06 00:47:38;;;;;;;1.80;0.98;;;9.70;80.90;;;;;;4939614;29;20504;-84
2023/03/06 00:50:04;;;;;;;1.10;0.80;;;9.70;80.80;;;;;;4955425;29;20034;-84
2023/03/06 00:52:30;;;;;;;1.55;0.95;;;9.70;80.80;;;;;;4956914;29;20027;-84
2023/03/06 00:54:55;;;;;;;1.50;0.90;;;9.70;80.80;;;;;;4956896;29;20030;-83
2023/03/06 00:57:21;;;;;;;1.20;0.80;;;9.70;80.80;;;;;;4939699;29;20027;-84
2023/03/06 00:59:46;;;;;;;1.15;0.80;;;9.70;80.90;;;;;;4956454;29;20083;-84
2023/03/06 01:02:12;;;;;;;1.95;0.90;;;9.70;80.80;;;;;;4940584;29;20027;-84
2023/03/06 01:04:38;;;;;;;2.22;1.08;;;9.70;80.90;;;;;;4958325;29;20028;-84
2023/03/06 01:07:03;;;;;;;0.88;0.75;;;9.70;80.90;;;;;;4957239;29;20123;-84
2023/03/06 01:09:29;;;;;;;1.23;0.90;;;9.70;81.00;;;;;;4958233;29;20450;-83
2023/03/06 01:11:55;;;;;;;1.23;0.82;;;9.70;81.30;;;;;;4957997;29;20027;-84
2023/03/06 01:14:20;;;;;;;1.77;1.00;;;9.70;80.90;;;;;;4954731;29;20034;-84
2023/03/06 01:16:46;;;;;;;1.55;0.98;;;9.70;80.90;;;;;;4956242;29;20027;-84
2023/03/06 01:19:12;;;;;;;0.98;0.70;;;9.70;80.90;;;;;;4956038;29;20034;-84
2023/03/06 01:21:38;;;;;;;1.13;0.80;;;9.70;81.00;;;;;;4954949;29;20019;-84
2023/03/06 01:24:04;;;;;;;1.42;1.00;;;9.70;81.00;;;;;;4954660;29;20034;-83
2023/03/06 01:26:30;;;;;;;0.98;0.75;;;9.70;81.00;;;;;;4955964;29;20035;-83
2023/03/06 01:28:58;;;;;;;1.42;0.90;;;9.70;81.00;;;;;;4954489;29;20133;-83
2023/03/06 01:31:24;;;;;;;1.58;1.00;;;9.70;81.00;;;;;;4955705;29;20023;-84
2023/03/06 01:33:50;;;;;;;1.45;0.90;;;9.70;81.00;;;;;;4955762;29;20023;-84
2023/03/06 01:36:15;;;;;;;1.30;0.80;;;9.70;81.00;;;;;;4954808;29;20030;-84
2023/03/06 01:38:41;;;;;;;2.75;1.00;;;9.70;81.00;;;;;;4954767;28;20434;-84
2023/03/06 01:41:09;;;;;;;1.95;1.10;;;9.70;81.00;;;;;;4955053;29;20031;-83
2023/03/06 01:43:37;;;;;;;1.63;0.80;;;9.70;81.00;;;;;;4956146;29;20491;-84
2023/03/06 01:46:21;;;;;;;2.05;0.98;;;9.70;81.00;;;;;;4937916;29;20041;-83
2023/03/06 01:48:52;;;;;;;2.05;1.00;;;9.70;81.10;;;;;;4938091;29;20114;-84
2023/03/06 01:51:18;;;;;;;1.55;1.00;;;9.70;81.00;;;;;;4938016;29;20027;-84
2023/03/06 01:53:45;;;;;;;1.35;0.90;;;9.70;81.00;;;;;;4938055;29;20030;-84
2023/03/06 01:56:12;;;;;;;1.95;0.95;;;9.60;80.90;;;;;;4937749;29;20123;-83
2023/03/06 01:58:38;;;;;;;1.45;0.95;;;9.60;81.00;;;;;;4954483;29;20501;-83
2023/03/06 02:01:04;;;;;;;1.63;0.90;;;9.70;81.10;;;;;;4938217;29;20037;-83
2023/03/06 02:03:30;;;;;;;1.58;1.00;;;9.70;81.10;;;;;;4954411;29;20118;-84
2023/03/06 02:05:57;;;;;;;1.20;0.90;;;9.70;81.10;;;;;;4954455;29;20028;-84
2023/03/06 02:08:23;;;;;;;1.52;1.00;;;9.60;81.00;;;;;;4958655;29;20023;-83
2023/03/06 02:10:56;;;;;;;1.38;1.00;;;9.60;81.00;;;;;;4961525;29;20047;-84
2023/03/06 02:13:21;;;;;;;1.35;0.90;;;9.70;81.10;;;;;;4945597;29;20383;-84
2023/03/06 02:15:47;;;;;;;1.52;1.00;;;9.70;81.10;;;;;;4962846;29;20041;-83
2023/03/06 02:18:13;;;;;;;1.83;0.98;;;9.60;81.00;;;;;;4963249;29;20051;-84
2023/03/06 02:20:47;;;;;;;1.48;1.08;;;9.70;81.10;;;;;;4945117;29;20099;-84
2023/03/06 02:23:41;;;;;;;1.70;1.10;;;9.70;81.10;;;;;;4961752;29;20059;-84
2023/03/06 02:26:08;;;;;;;1.20;0.90;;;9.70;81.10;;;;;;4943605;29;20027;-84
2023/03/06 02:28:33;;;;;;;1.88;0.98;;;9.60;81.10;;;;;;4944040;29;20019;-84
2023/03/06 02:30:59;;;;;;;2.80;1.30;;;9.70;81.10;;;;;;4960845;29;20083;-84
2023/03/06 02:33:27;;;;;;;1.25;1.00;;;9.60;81.10;;;;;;4960145;29;20106;-84
2023/03/06 02:36:01;;;;;;;1.27;0.88;;;9.60;81.10;;;;;;4956589;29;20031;-84
2023/03/06 02:38:36;;;;;;;1.73;1.02;;;9.60;81.10;;;;;;4940135;29;20031;-84
2023/03/06 02:41:06;;;;;;;1.65;1.02;;;9.60;81.10;;;;;;4941972;29;20090;-84
2023/03/06 02:43:34;;;;;;;1.20;0.90;;;9.60;81.10;;;;;;4959551;29;20505;-83
2023/03/06 02:46:00;;;;;;;1.52;1.00;;;9.70;81.00;;;;;;4941455;29;20117;-83
2023/03/06 02:48:25;;;;;;;2.45;1.30;;;9.60;81.10;;;;;;4959005;29;20062;-83
2023/03/06 02:50:51;;;;;;;2.00;1.10;;;9.60;81.10;;;;;;4947048;29;20461;-83
2023/03/06 02:53:18;;;;;;;1.50;0.93;;;9.60;81.10;;;;;;4947631;29;20031;-84
2023/03/06 02:55:45;;;;;;;4.28;1.02;;;9.60;81.10;;;;;;4965474;28;20031;-83
2023/03/06 02:58:11;;;;;;;1.23;1.05;;;9.60;81.10;;;;;;4952069;29;20027;-84
2023/03/06 03:00:36;;;;;;;1.90;1.10;;;9.60;81.10;;;;;;4952158;29;20098;-83
2023/03/06 03:03:03;;;;;;;1.98;1.20;;;9.70;81.10;;;;;;4951715;29;20037;-84
2023/03/06 03:05:29;;;;;;;2.45;1.20;;;9.60;81.10;;;;;;4951245;28;20074;-84
2023/03/06 03:07:54;;;;;;;2.58;1.13;;;9.60;81.00;;;;;;4967208;29;20486;-84
2023/03/06 03:10:20;;;;;;;1.73;1.10;;;9.60;81.10;;;;;;4950491;29;20023;-83
2023/03/06 03:12:45;;;;;;;1.35;0.98;;;9.60;81.10;;;;;;4966015;28;20023;-83
2023/03/06 03:15:11;;;;;;;1.08;0.95;;;9.60;81.00;;;;;;4966837;29;20039;-84
2023/03/06 03:17:40;;;;;;;1.77;1.23;;;9.60;81.00;;;;;;4964948;28;20437;-84
2023/03/06 03:20:09;;;;;;;2.42;1.30;;;9.60;81.10;;;;;;4966300;28;20027;-84
2023/03/06 03:22:34;;;;;;;1.58;1.00;;;9.60;81.10;;;;;;4949372;29;20034;-84
2023/03/06 03:25:00;;;;;;;1.92;1.40;;;9.60;81.10;;;;;;4948237;29;20023;-84
2023/03/06 03:27:25;;;;;;;1.98;1.10;;;9.60;81.10;;;;;;4963490;29;20449;-84
2023/03/06 03:29:51;;;;;;;1.75;1.10;;;9.60;81.20;;;;;;4955314;29;20044;-84
2023/03/06 03:32:16;;;;;;;1.65;1.05;;;9.60;81.70;;;;;;4929208;29;20027;-82
2023/03/06 03:34:42;;;;;;;2.10;1.15;;;9.60;81.20;;;;;;4945579;29;20087;-83
2023/03/06 03:37:07;;;;;;;2.53;1.23;;;9.60;81.20;;;;;;4945878;29;20399;-83
2023/03/06 03:39:33;;;;;;;1.90;1.30;;;9.60;81.20;;;;;;4928831;29;20027;-83
2023/03/06 03:41:59;;;;;;;2.20;1.25;;;9.60;81.20;;;;;;4928263;29;20106;-84
2023/03/06 03:44:24;;;;;;;2.38;1.33;;;9.60;81.70;;;;;;4944711;29;20038;-83
2023/03/06 03:46:50;;;;;;;2.03;1.23;;;9.60;81.20;;;;;;4944848;29;20414;-83
2023/03/06 03:49:16;;;;;;;2.13;1.33;;;9.60;81.20;;;;;;4942157;29;20384;-83
2023/03/06 03:51:41;;;;;;;2.67;1.40;;;9.60;81.20;;;;;;4926554;29;20032;-83
2023/03/06 03:54:07;;;;;;;2.20;1.30;;;9.60;81.10;;;;;;4927127;29;20027;-83
2023/03/06 03:56:32;;;;;;;1.77;1.17;;;9.70;81.30;;;;;;4942982;29;20499;-84
2023/03/06 03:58:58;;;;;;;1.95;1.20;;;9.60;81.20;;;;;;4943373;29;20442;-83
2023/03/06 04:01:24;;;;;;;2.90;1.70;;;9.60;81.10;;;;;;4923957;29;20036;-84
2023/03/06 04:03:50;;;;;;;3.15;1.60;;;9.60;81.20;;;;;;4938716;29;20580;-82
2023/03/06 04:06:16;;;;;;;1.85;1.23;;;9.60;81.10;;;;;;4937124;29;20028;-84
2023/03/06 04:08:41;;;;;;;2.15;1.30;;;9.60;81.10;;;;;;4938686;29;20567;-83
2023/03/06 04:11:07;;;;;;;2.47;1.35;;;9.60;81.10;;;;;;4922136;29;20032;-83
2023/03/06 04:13:32;;;;;;;2.95;1.58;;;9.60;81.10;;;;;;4921291;29;20119;-83
2023/03/06 04:15:58;;;;;;;2.40;1.35;;;9.60;81.20;;;;;;4938296;29;20031;-82
2023/03/06 04:18:24;;;;;;;2.28;1.38;;;9.60;81.10;;;;;;4938351;29;20039;-83
2023/03/06 04:20:50;;;;;;;2.58;1.42;;;9.60;81.10;;;;;;4922682;29;20055;-80
2023/03/06 04:23:17;;;;;;;2.50;1.60;;;9.60;81.10;;;;;;4937554;29;20028;-80
2023/03/06 04:25:42;;;;;;;2.50;1.45;;;9.70;81.20;;;;;;4928091;29;20059;-82
2023/03/06 04:28:08;;;;;;;2.67;1.50;;;9.60;81.10;;;;;;4953405;29;20034;-82
2023/03/06 04:30:34;;;;;;;3.10;1.50;;;9.60;81.10;;;;;;4956754;28;20059;-80
2023/03/06 04:33:00;;;;;;;2.80;1.63;;;9.60;81.10;;;;;;4939579;29;20019;-82
2023/03/06 04:35:25;;;;;;;2.83;1.48;;;9.60;81.10;;;;;;4939316;28;20402;-83
2023/03/06 04:37:51;;;;;;;2.63;1.50;;;9.60;81.10;;;;;;4941206;29;20501;-81
2023/03/06 04:40:20;;;;;;;3.20;1.63;;;9.60;81.10;;;;;;4957624;29;20663;-81
2023/03/06 04:42:46;;;;;;;2.70;1.50;;;9.60;81.10;;;;;;4939237;29;20031;-81
2023/03/06 04:45:12;;;;;;;3.35;1.70;;;9.60;81.60;;;;;;4937576;29;20031;-78
2023/03/06 04:47:38;;;;;;;3.45;1.75;;;9.60;81.10;;;;;;4936760;29;20118;-81
2023/03/06 04:50:05;;;;;;;3.55;1.80;;;9.60;81.10;;;;;;4938555;29;20106;-81
2023/03/06 04:52:31;;;;;;;3.58;1.73;;;9.60;81.10;;;;;;4939052;28;20030;-83
2023/03/06 04:54:56;;;;;;;3.15;1.77;;;9.60;81.20;;;;;;4938646;29;20413;-81
2023/03/06 04:57:22;;;;;;;4.10;1.88;;;9.60;81.10;;;;;;4956679;28;20035;-82
2023/03/06 04:59:49;;;;;;;3.45;1.70;;;9.60;81.20;;;;;;4939741;29;20063;-80
2023/03/06 05:02:15;;;;;;;3.33;1.73;;;9.60;81.10;;;;;;4937739;29;20335;-82
2023/03/06 05:04:40;;;;;;;2.97;1.70;;;9.60;81.20;;;;;;4937039;29;20808;-80
2023/03/06 05:07:06;;;;;;;3.70;1.90;;;9.60;81.10;;;;;;4955116;29;20082;-79
2023/03/06 05:09:33;;;;;;;3.30;1.77;;;9.60;81.10;;;;;;4935705;29;20027;-77
2023/03/06 05:11:59;;;;;;;3.40;1.70;;;9.60;81.10;;;;;;4934290;28;20526;-77
2023/03/06 05:14:24;;;;;;;3.55;1.80;;;9.60;81.20;;;;;;4939578;29;20052;-81
2023/03/06 05:16:50;;;;;;;2.92;1.80;;;9.60;81.20;;;;;;4941488;29;20059;-81
2023/03/06 05:19:15;;;;;;;3.40;1.80;;;9.60;81.20;;;;;;4960099;28;20486;-80
2023/03/06 05:21:41;;;;;;;3.30;1.75;;;9.60;81.20;;;;;;4939330;29;20038;-81
2023/03/06 05:24:06;;;;;;;2.58;1.58;;;9.60;81.10;;;;;;4938469;29;20086;-80
2023/03/06 05:26:33;;;;;;;3.63;1.73;;;9.60;81.20;;;;;;4952118;29;20065;-80
2023/03/06 05:28:59;;;;;;;3.78;1.95;;;9.60;81.20;;;;;;4921419;29;20035;-80
2023/03/06 05:31:24;;;;;;;4.20;2.00;;;9.60;81.20;;;;;;4955388;29;20027;-80
2023/03/06 05:33:50;;;;;;;3.30;1.80;;;9.60;81.20;;;;;;4939631;29;20118;-80
2023/03/06 05:36:15;;;;;;;3.47;1.95;;;9.60;81.20;;;;;;4953615;29;20108;-80
2023/03/06 05:38:41;;;;;;;3.45;1.83;;;9.60;81.20;;;;;;4937590;29;20027;-80
2023/03/06 05:41:10;;;;;;;4.05;2.20;;;9.60;81.20;;;;;;4937247;29;20807;-79
2023/03/06 05:43:36;;;;;;;3.67;1.90;;;9.60;81.20;;;;;;4936809;29;20031;-79
2023/03/06 05:46:04;;;;;;;3.10;1.83;;;9.60;81.20;;;;;;4936494;29;20037;-78
2023/03/06 05:48:29;;;;;;;3.45;1.85;;;9.60;81.20;;;;;;4944861;29;20046;-79
2023/03/06 05:50:59;;;;;;;4.05;2.10;;;9.60;81.20;;;;;;4923699;29;20016;-78
2023/03/06 05:53:25;;;;;;;3.42;1.95;;;9.60;81.20;;;;;;4943214;29;20386;-81
2023/03/06 05:56:09;;;;;;;3.47;1.98;;;9.60;81.20;;;;;;4936653;29;20509;-79
2023/03/06 05:58:36;;;;;;;4.05;2.00;;;9.60;81.20;;;;;;4955119;29;20043;-79
2023/03/06 06:01:11;;;;;;;4.10;2.15;;;9.60;81.20;;;;;;4956991;29;20031;-81
2023/03/06 06:03:37;;;;;;;3.85;2.10;;;9.60;81.20;;;;;;4957810;29;20055;-83
2023/03/06 06:06:04;;;;;;;4.10;2.00;;;9.60;81.30;;;;;;4940224;29;20450;-80
2023/03/06 06:08:29;;;;;;;3.65;1.98;;;9.60;81.20;;;;;;4955889;29;20031;-84
2023/03/06 06:10:55;;;;;;;3.50;1.98;;;9.60;81.30;;;;;;4958115;29;20560;-83
2023/03/06 06:13:20;;;;;;;3.92;2.20;;;9.60;81.20;;;;;;4939214;29;20023;-83
2023/03/06 06:15:46;;;;;;;3.70;2.03;;;9.60;81.20;;;;;;4986127;23;20342;-83
2023/03/06 06:18:11;;;;;;;4.38;2.13;;;9.60;81.20;;;;;;4956910;29;20132;-83
2023/03/06 06:20:37;;;;;;;4.40;2.22;;;9.60;81.20;;;;;;4940644;29;20429;-82
2023/03/06 06:23:03;;;;;;;4.03;2.22;;;9.60;81.20;;;;;;4940182;29;20027;-81
2023/03/06 06:25:28;;;;;;;3.75;1.90;;;9.60;81.20;;;;;;4954545;28;20282;-82
2023/03/06 06:27:55;;;;;;;3.90;2.10;;;9.60;81.30;;;;;;4960037;28;20027;-82
2023/03/06 06:30:21;;;;;;;3.60;1.95;;;9.60;81.30;;;;;;4975041;28;20831;-82
2023/03/06 06:32:47;;;;;;;4.00;2.20;;;9.60;81.30;;;;;;4959309;28;20501;-85
2023/03/06 06:35:12;;;;;;;4.68;2.53;;;9.60;81.20;;;;;;4973536;28;20121;-80
2023/03/06 06:37:38;;;;;;;6.57;2.85;;;9.60;81.00;;;;;;4959988;28;20035;-80
2023/03/06 06:40:04;;;;;;;4.90;2.88;;;9.60;80.90;;;;;;4976278;28;20541;-82
2023/03/06 06:42:30;;;;;;;4.90;2.30;;;9.60;80.80;;;;;;4959872;28;20050;-80
2023/03/06 06:44:55;;;;;;;4.93;2.40;;;9.50;80.80;;;;;;4957796;28;20027;-83
2023/03/06 06:47:21;;;;;;;4.47;2.40;;;9.60;81.00;;;;;;4939482;29;20110;-83
2023/03/06 06:49:51;;;;;;;5.20;2.65;;;9.60;81.00;;;;;;4956963;29;20228;-82
2023/03/06 06:52:17;;;;;;;4.43;2.30;;;9.60;81.00;;;;;;4958153;29;20023;-82
2023/03/06 06:54:43;;;;;;;4.85;2.60;;;9.60;81.00;;;;;;4957337;29;20051;-82
2023/03/06 06:57:10;;;;;;;4.60;2.28;;;9.60;81.10;;;;;;4956968;29;20031;-82
2023/03/06 06:59:36;;;;;;;4.13;2.53;;;9.60;81.10;;;;;;4957614;29;20098;-82
2023/03/06 07:02:01;;;;;;;3.90;2.28;;;9.60;81.10;;;;;;4956732;29;20677;-82
2023/03/06 07:04:27;;;;;;;3.90;2.33;;;9.60;81.10;;;;;;4955999;29;20031;-82
2023/03/06 07:06:54;;;;;;;5.43;2.40;;;9.60;81.10;;;;;;4955562;29;20082;-83
2023/03/06 07:09:21;;;;;;;4.82;2.80;;;9.60;81.10;;;;;;4956338;29;20490;-82
2023/03/06 07:11:46;;;;;;;4.63;2.60;;;9.60;81.10;;;;;;4939096;29;20055;-83
2023/03/06 07:14:12;;;;;;;4.93;2.72;;;9.60;81.10;;;;;;4954418;29;20036;-83
2023/03/06 07:16:38;;;;;;;4.65;2.40;;;9.60;81.20;;;;;;4956479;29;20413;-83
2023/03/06 07:19:04;;;;;;;4.82;2.50;;;9.60;81.10;;;;;;4954736;29;20059;-83
2023/03/06 07:21:29;;;;;;;4.88;3.00;;;9.60;81.20;;;;;;4954742;29;20438;-83
2023/03/06 07:23:56;;;;;;;5.25;2.60;;;9.60;81.20;;;;;;4938548;29;20027;-82
2023/03/06 07:26:22;;;;;;;4.07;2.28;;;9.60;81.20;;;;;;4954263;29;20023;-82
2023/03/06 07:28:51;;;;;;;4.68;2.33;;;9.60;81.20;;;;;;4956654;29;20120;-82
2023/03/06 07:31:17;;;;;;;4.72;2.58;;;9.60;81.20;;;;;;4938358;29;20525;-82
2023/03/06 07:33:43;;;;;;;4.60;2.50;;;9.60;81.20;;;;;;4955821;29;20101;-82
2023/03/06 07:36:09;;;;;;;4.45;2.70;;;9.60;81.20;;;;;;4956691;28;20032;-82
2023/03/06 07:38:35;;;;;;;4.30;2.50;;;9.60;81.20;;;;;;4958083;29;20118;-82
2023/03/06 07:41:01;;;;;;;5.10;2.50;;;9.60;81.30;;;;;;4957129;29;20076;-82
2023/03/06 07:43:26;;;;;;;5.35;2.70;;;9.60;81.30;;;;;;4958091;29;20031;-83
2023/03/06 07:45:58;;;;;;;5.13;2.88;;;9.60;81.30;;;;;;4959632;29;20023;-82
2023/03/06 07:48:24;;;;;;;4.70;2.60;;;9.60;81.30;;;;;;4958659;29;20019;-82
2023/03/06 07:51:02;;;;;;;5.18;2.85;;;9.60;81.30;;;;;;4958503;29;20035;-82
2023/03/06 07:53:28;;;;;;;5.55;2.70;;;9.50;81.30;;;;;;4957346;29;20023;-82
2023/03/06 07:55:54;;;;;;;4.97;2.78;;;9.60;81.30;;;;;;4959147;29;20027;-82
2023/03/06 07:58:19;;;;;;;5.07;2.47;;;9.60;81.30;;;;;;4956415;29;20126;-82
2023/03/06 08:00:45;;;;;;;4.65;2.55;;;9.60;81.30;;;;;;4957764;29;20055;-81
2023/03/06 08:03:12;;;;;;;4.97;2.70;;;9.60;81.30;;;;;;4940196;29;20062;-83
2023/03/06 08:05:37;;;;;;;4.93;2.55;;;9.60;81.30;;;;;;4955574;29;20038;-82
2023/03/06 08:08:03;;;;;;;5.20;2.60;;;9.60;81.30;;;;;;4956019;29;20019;-82
2023/03/06 08:10:28;;;;;;;4.72;2.80;;;9.60;81.30;;;;;;4940149;29;20031;-82
2023/03/06 08:12:54;;;;;;;5.70;2.85;;;9.60;81.30;;;;;;4957425;29;20027;-82
2023/03/06 08:15:20;;;;;;;5.15;2.78;;;9.60;81.30;;;;;;4955561;29;20035;-82
2023/03/06 08:17:46;;;;;;;4.90;2.83;;;9.60;81.30;;;;;;4955818;29;20425;-82
2023/03/06 08:20:13;;;;;;;5.13;2.80;;;9.60;81.40;;;;;;4955684;29;20497;-82
2023/03/06 08:22:39;;;;;;;4.82;2.75;;;9.60;81.30;;;;;;4955749;29;20035;-83
2023/03/06 08:25:05;;;;;;;4.82;2.80;;;9.60;81.30;;;;;;4955388;29;20375;-82
2023/03/06 08:27:32;;;;;;;5.25;3.00;;;9.60;81.30;;;;;;4955309;29;20114;-83
2023/03/06 08:29:58;;;;;;;4.80;2.83;;;9.60;81.30;;;;;;4955294;29;20030;-82
2023/03/06 08:32:24;;;;;;;4.88;2.70;;;9.60;81.30;;;;;;4954834;29;20031;-82
2023/03/06 08:34:50;;;;;;;5.40;2.97;;;9.60;81.30;;;;;;4956308;29;20066;-82
2023/03/06 08:37:16;;;;;;;4.72;2.58;;;9.60;81.30;;;;;;4955081;29;20451;-83
2023/03/06 08:39:41;;;;;;;5.60;3.20;;;9.60;81.30;;;;;;4942787;29;20114;-83
2023/03/06 08:42:08;;;;;;;4.60;2.70;;;9.60;81.30;;;;;;4941401;29;20054;-82
2023/03/06 08:44:34;;;;;;;5.00;2.83;;;9.60;81.30;;;;;;4957750;29;20031;-82
2023/03/06 08:47:00;;;;;;;4.88;2.97;;;9.60;81.30;;;;;;4956331;28;20055;-83
2023/03/06 08:49:25;;;;;;;5.38;2.92;;;9.60;81.30;;;;;;4962464;29;20446;-83
2023/03/06 08:51:51;;;;;;;4.50;2.75;;;9.60;81.30;;;;;;4945156;29;20486;-83
2023/03/06 08:54:16;;;;;;;5.32;3.10;;;9.60;81.20;;;;;;4944735;29;20470;-82
2023/03/06 08:56:42;;;;;;;4.43;2.72;;;9.60;81.30;;;;;;4961982;29;20023;-82
2023/03/06 08:59:10;;;;;;;5.60;2.97;;;9.60;81.20;;;;;;4960511;29;20394;-82
2023/03/06 09:01:36;;;;;;;5.05;2.88;;;9.60;81.20;;;;;;4960252;29;20413;-83
2023/03/06 09:04:08;;;;;;;5.43;3.17;;;9.50;81.20;;;;;;4943765;29;20031;-82
2023/03/06 09:06:36;;;;;;;5.07;2.90;;;9.60;81.20;;;;;;4960873;29;20542;-82
2023/03/06 09:09:03;;;;;;;5.60;3.20;;;9.60;81.20;;;;;;4959902;29;20031;-83
2023/03/06 09:11:29;;;;;;;4.55;2.83;;;9.60;81.20;;;;;;4960709;29;20443;-82
2023/03/06 09:13:55;;;;;;;5.43;3.00;;;9.60;81.20;;;;;;4962314;29;20027;-82
2023/03/06 09:16:22;;;;;;;5.07;2.90;;;9.70;81.30;;;;;;4958790;29;20038;-82
2023/03/06 09:18:49;;;;;;;5.25;2.90;;;9.60;81.20;;;;;;4958561;29;20046;-82
2023/03/06 09:21:15;;;;;;;5.15;3.10;;;9.60;81.20;;;;;;4942524;29;20028;-82
2023/03/06 09:23:41;;;;;;;5.22;2.90;;;9.60;81.20;;;;;;4942481;29;20028;-83
2023/03/06 09:26:07;;;;;;;5.20;3.03;;;9.60;81.20;;;;;;4941967;29;20034;-82
2023/03/06 09:28:35;;;;;;;5.30;2.88;;;9.60;81.20;;;;;;4957864;29;20118;-82
2023/03/06 09:31:05;;;;;;;4.72;2.97;;;9.60;81.20;;;;;;4957788;29;20082;-81
2023/03/06 09:33:32;;;;;;;5.25;3.05;;;9.60;81.20;;;;;;4957534;29;20128;-81
2023/03/06 09:35:57;;;;;;;5.35;3.22;;;9.60;81.20;;;;;;4957408;29;20485;-82
2023/03/06 09:38:27;;;;;;;4.78;2.92;;;9.60;81.20;;;;;;4944673;29;20031;-82
2023/03/06 09:41:12;;;;;;;5.28;2.95;;;9.50;81.20;;;;;;4944569;29;20031;-83
2023/03/06 09:43:42;;;;;;;5.22;2.95;;;9.60;81.20;;;;;;4961370;29;20121;-84
2023/03/06 09:46:22;;;;;;;5.30;2.90;;;9.60;81.20;;;;;;4959427;29;20042;-83
2023/03/06 09:49:22;;;;;;;5.13;3.20;;;9.60;81.20;;;;;;4943758;29;20026;-83
2023/03/06 09:52:21;;;;;;;5.13;3.00;;;9.60;81.10;;;;;;4961470;29;20313;-83
2023/03/06 09:54:57;;;;;;;5.83;2.93;;;9.60;81.10;;;;;;4943118;29;20071;-83
2023/03/06 09:57:36;;;;;;;5.47;3.22;;;9.60;81.00;;;;;;4942670;29;20023;-82
2023/03/06 10:00:15;;;;;;;5.50;3.15;;;9.60;80.90;;;;;;4959246;28;20125;-82
2023/03/06 10:02:44;;;;;;;5.43;3.03;;;9.70;81.00;;;;;;4959911;29;20512;-82
2023/03/06 10:05:21;;;;;;;5.25;3.00;;;9.60;80.90;;;;;;4942078;29;20027;-82
2023/03/06 10:08:04;;;;;;;4.85;2.90;;;9.70;80.90;;;;;;4957702;29;20055;-82
2023/03/06 10:11:02;;;;;;;4.65;2.70;;;9.70;80.90;;;;;;4957802;29;20498;-82
2023/03/06 10:13:43;;;;;;;4.82;2.72;;;9.70;80.80;;;;;;4957158;29;20031;-82
2023/03/06 10:16:27;;;;;;;5.07;2.90;;;9.70;80.90;;;;;;4956409;29;20042;-82
2023/03/06 10:18:55;;;;;;;5.88;3.40;;;9.60;80.80;;;;;;4958378;29;20118;-82
2023/03/06 10:21:51;;;;;;;4.88;2.70;;;9.70;80.90;;;;;;4957972;29;20062;-82
2023/03/06 10:24:32;;;;;;;5.10;2.90;;;9.70;80.90;;;;;;4957586;29;20102;-82
2023/03/06 10:27:20;;;;;;;5.07;2.90;;;9.60;80.90;;;;;;4956915;29;20035;-83
2023/03/06 10:30:11;;;;;;;8.07;3.15;;;9.60;80.90;;;;;;4939630;29;20019;-82
2023/03/06 10:32:49;;;;;;;5.45;3.08;;;9.60;80.90;;;;;;4957419;29;20053;-82
2023/03/06 10:35:22;;;;;;;4.75;2.65;;;9.60;80.90;;;;;;4957325;29;20529;-82
2023/03/06 10:37:48;;;;;;;5.80;3.35;;;9.70;80.90;;;;;;4957505;29;20035;-82
2023/03/06 10:40:18;;;;;;;5.10;2.90;;;9.70;80.90;;;;;;4955652;29;20023;-82
2023/03/06 10:42:44;;;;;;;4.78;2.75;;;9.70;80.90;;;;;;4939592;29;20035;-82
2023/03/06 10:45:13;;;;;;;4.63;2.88;;;9.70;80.80;;;;;;4955995;29;20027;-82
2023/03/06 10:47:39;;;;;;;5.03;3.00;;;9.70;80.80;;;;;;4958679;29;20031;-83
2023/03/06 10:50:26;;;;;;;5.30;3.00;;;9.70;80.70;;;;;;4956947;29;20027;-82
2023/03/06 10:53:03;;;;;;;5.25;3.33;;;9.70;80.70;;;;;;4955997;29;20051;-82
2023/03/06 10:55:31;;;;;;;5.03;2.85;;;9.70;80.70;;;;;;4955267;29;20051;-81
2023/03/06 10:58:15;;;;;;;4.97;3.05;;;9.70;80.70;;;;;;4955947;29;20129;-82
2023/03/06 11:00:40;;;;;;;4.95;2.95;;;9.70;80.80;;;;;;4957124;29;20035;-82
2023/03/06 11:03:18;;;;;;;5.20;2.80;;;9.70;80.80;;;;;;4956505;29;20517;-82
2023/03/06 11:05:58;;;;;;;4.85;2.85;;;9.70;80.70;;;;;;4953743;29;20027;-82
2023/03/06 11:08:24;;;;;;;5.25;3.10;;;9.70;80.70;;;;;;4956341;29;20023;-82
2023/03/06 11:10:59;;;;;;;5.07;3.10;;;9.70;80.80;;;;;;4955636;28;20031;-82
2023/03/06 11:13:27;;;;;;;5.05;2.78;;;9.60;80.70;;;;;;4957402;29;20050;-83
2023/03/06 11:16:06;;;;;;;5.57;3.25;;;9.70;80.70;;;;;;4958224;29;20081;-82
2023/03/06 11:18:39;;;;;;;5.07;3.13;;;9.70;80.70;;;;;;4944000;29;20055;-82
2023/03/06 11:21:23;;;;;;;5.38;3.10;;;9.70;80.70;;;;;;4958801;29;20023;-82
2023/03/06 11:23:50;;;;;;;5.13;2.97;;;9.70;80.70;;;;;;4959402;29;20023;-82
2023/03/06 11:26:15;;;;;;;5.30;3.10;;;9.70;80.70;;;;;;4959104;29;20035;-83
2023/03/06 11:29:05;;;;;;;5.50;3.17;;;9.70;80.70;;;;;;4959428;29;20150;-83
2023/03/06 11:31:34;;;;;;;4.90;2.97;;;9.70;80.60;;;;;;4956962;29;20033;-82
2023/03/06 11:34:15;;;;;;;4.88;2.88;;;9.70;80.60;;;;;;4955806;29;20034;-82
2023/03/06 11:36:55;;;;;;;5.45;3.10;;;9.80;80.60;;;;;;4956618;29;20083;-82
2023/03/06 11:39:34;;;;;;;5.60;3.15;;;9.80;80.60;;;;;;4956339;29;20090;-83
2023/03/06 11:42:16;;;;;;;4.68;2.55;;;9.80;80.60;;;;;;4940494;29;20059;-82
2023/03/06 11:44:58;;;;;;;5.68;3.08;;;9.80;80.60;;;;;;4956942;29;20118;-82
2023/03/06 11:47:38;;;;;;;4.38;2.40;;;9.80;80.60;;;;;;4941223;29;20379;-82
2023/03/06 11:50:21;;;;;;;5.18;2.92;;;9.80;80.50;;;;;;4958863;29;20024;-82
2023/03/06 11:52:52;;;;;;;4.40;2.80;;;9.80;80.50;;;;;;4957293;29;20058;-82
2023/03/06 11:55:32;;;;;;;4.93;2.80;;;9.80;80.50;;;;;;4957208;29;20406;-82
2023/03/06 11:58:26;;;;;;;4.67;2.60;;;9.80;80.50;;;;;;4939939;29;20569;-82
2023/03/06 12:01:01;;;;;;;5.10;2.83;;;9.80;80.40;;;;;;4940371;29;20194;-82
2023/03/06 12:03:57;;;;;;;5.18;3.00;;;9.80;80.40;;;;;;4955702;29;20532;-82
2023/03/06 12:06:34;;;;;;;4.53;2.75;;;9.80;80.30;;;;;;4957019;29;20430;-82
2023/03/06 12:09:36;;;;;;;5.28;2.80;;;9.90;80.30;;;;;;4940042;29;20034;-82
2023/03/06 12:12:14;;;;;;;4.75;2.75;;;9.90;80.20;;;;;;4930449;29;20038;-83
2023/03/06 12:15:03;;;;;;;4.72;2.70;;;9.90;80.20;;;;;;4939510;29;20035;-82
2023/03/06 12:17:37;;;;;;;5.00;2.72;;;9.90;80.20;;;;;;4946281;29;20066;-83
2023/03/06 12:20:21;;;;;;;4.78;2.70;;;9.90;80.10;;;;;;4962971;29;20019;-83
2023/03/06 12:23:01;;;;;;;4.68;2.85;;;9.90;80.10;;;;;;4945012;29;20035;-83
2023/03/06 12:25:35;;;;;;;4.60;2.75;;;9.90;80.00;;;;;;4960755;29;20490;-82
2023/03/06 12:28:14;;;;;;;4.53;2.70;;;9.90;80.00;;;;;;4961451;29;20023;-83
2023/03/06 12:31:08;;;;;;;4.63;2.80;;;9.90;80.00;;;;;;4962622;29;20020;-83
2023/03/06 12:33:36;;;;;;;5.00;2.80;;;9.90;80.00;;;;;;4960301;29;20043;-82
2023/03/06 12:36:34;;;;;;;4.35;2.30;;;9.90;80.00;;;;;;4961703;29;20027;-82
2023/03/06 12:39:13;;;;;;;4.75;2.58;;;9.90;79.90;;;;;;4943657;29;20058;-83
2023/03/06 12:41:57;;;;;;;4.20;2.60;;;9.90;80.00;;;;;;4962371;29;20032;-82
2023/03/06 12:44:45;;;;;;;4.60;2.70;;;9.90;80.00;;;;;;4959799;29;20039;-82
2023/03/06 12:47:15;;;;;;;4.85;2.80;;;9.90;80.00;;;;;;4959127;29;20397;-83
2023/03/06 12:49:46;;;;;;;5.20;2.80;;;9.90;80.00;;;;;;4960469;29;20030;-82
2023/03/06 12:52:22;;;;;;;5.22;2.75;;;9.90;80.00;;;;;;4959445;29;20038;-82
2023/03/06 12:54:49;;;;;;;4.22;2.45;;;9.90;80.00;;;;;;4960041;29;20063;-82
2023/03/06 12:57:15;;;;;;;4.97;2.78;;;9.90;80.00;;;;;;4960484;29;20027;-82
2023/03/06 12:59:48;;;;;;;4.25;2.53;;;9.90;80.00;;;;;;4958571;29;20058;-82
2023/03/06 13:02:16;;;;;;;4.70;2.60;;;9.90;80.00;;;;;;4958051;29;20023;-82
2023/03/06 13:05:00;;;;;;;4.10;2.50;;;9.90;80.00;;;;;;4958965;29;20028;-83
2023/03/06 13:07:47;;;;;;;4.57;2.50;;;10.00;80.00;;;;;;4962075;29;20019;-83
2023/03/06 13:10:27;;;;;;;4.35;2.40;;;9.90;79.90;;;;;;4961283;29;20383;-83